sensor_id;sensor_type;location;lat;lon;timestamp;P1;durP1;ratioP1;P2;durP2;ratioP2
11386;SDS011;5748;53.102;8.456;2022-09-09T00:01:00;2.00;;;1.90;;
11386;SDS011;5748;53.102;8.456;2022-09-09T00:03:37;2.00;;;1.90;;
11386;SDS011;5748;53.102;8.456;2022-09-09T00:06:15;2.17;;;2.00;;
11386;SDS011;5748;53.102;8.456;2022-09-09T00:08:51;2.00;;;1.90;;
11386;SDS011;5748;53.102;8.456;2022-09-09T00:11:28;1.93;;;1.83;;
11386;SDS011;5748;53.102;8.456;2022-09-09T00:14:09;1.90;;;1.80;;
11386;SDS011;5748;53.102;8.456;2022-09-09T00:17:04;1.90;;;1.80;;
11386;SDS011;5748;53.102;8.456;2022-09-09T00:19:38;1.97;;;1.87;;
11386;SDS011;5748;53.102;8.456;2022-09-09T00:22:16;2.00;;;1.90;;
11386;SDS011;5748;53.102;8.456;2022-09-09T00:24:46;1.87;;;1.77;;
11386;SDS011;5748;53.102;8.456;2022-09-09T00:27:20;2.10;;;2.00;;
11386;SDS011;5748;53.102;8.456;2022-09-09T00:29:56;2.23;;;2.07;;
11386;SDS011;5748;53.102;8.456;2022-09-09T00:32:29;1.90;;;1.80;;
11386;SDS011;5748;53.102;8.456;2022-09-09T00:37:43;1.73;;;1.63;;
11386;SDS011;5748;53.102;8.456;2022-09-09T00:40:16;2.40;;;2.20;;
11386;SDS011;5748;53.102;8.456;2022-09-09T00:49:07;2.00;;;1.90;;
11386;SDS011;5748;53.102;8.456;2022-09-09T00:51:50;1.97;;;1.87;;
11386;SDS011;5748;53.102;8.456;2022-09-09T00:57:49;1.73;;;1.63;;
11386;SDS011;5748;53.102;8.456;2022-09-09T01:00:20;2.00;;;1.90;;
11386;SDS011;5748;53.102;8.456;2022-09-09T01:02:58;2.03;;;1.83;;
11386;SDS011;5748;53.102;8.456;2022-09-09T01:05:39;2.30;;;2.10;;
11386;SDS011;5748;53.102;8.456;2022-09-09T01:08:14;2.20;;;2.00;;
11386;SDS011;5748;53.102;8.456;2022-09-09T01:11:00;2.13;;;2.03;;
11386;SDS011;5748;53.102;8.456;2022-09-09T01:13:29;2.03;;;1.93;;
11386;SDS011;5748;53.102;8.456;2022-09-09T01:15:59;2.30;;;2.10;;
11386;SDS011;5748;53.102;8.456;2022-09-09T01:18:31;2.27;;;2.07;;
11386;SDS011;5748;53.102;8.456;2022-09-09T01:21:15;2.23;;;2.03;;
11386;SDS011;5748;53.102;8.456;2022-09-09T01:24:07;2.50;;;2.30;;
11386;SDS011;5748;53.102;8.456;2022-09-09T01:26:48;2.40;;;2.20;;
11386;SDS011;5748;53.102;8.456;2022-09-09T01:29:18;2.30;;;2.10;;
11386;SDS011;5748;53.102;8.456;2022-09-09T01:31:54;2.47;;;2.27;;
11386;SDS011;5748;53.102;8.456;2022-09-09T01:34:24;3.00;;;2.23;;
11386;SDS011;5748;53.102;8.456;2022-09-09T01:36:57;2.47;;;2.27;;
11386;SDS011;5748;53.102;8.456;2022-09-09T01:39:30;2.33;;;2.13;;
11386;SDS011;5748;53.102;8.456;2022-09-09T01:42:01;2.33;;;2.13;;
11386;SDS011;5748;53.102;8.456;2022-09-09T01:44:30;2.53;;;2.33;;
11386;SDS011;5748;53.102;8.456;2022-09-09T01:46:57;3.10;;;2.40;;
11386;SDS011;5748;53.102;8.456;2022-09-09T01:49:24;2.63;;;2.00;;
11386;SDS011;5748;53.102;8.456;2022-09-09T01:51:53;2.47;;;2.27;;
11386;SDS011;5748;53.102;8.456;2022-09-09T01:54:23;3.80;;;3.50;;
11386;SDS011;5748;53.102;8.456;2022-09-09T01:56:54;4.60;;;4.20;;
11386;SDS011;5748;53.102;8.456;2022-09-09T01:59:40;4.10;;;3.70;;
11386;SDS011;5748;53.102;8.456;2022-09-09T02:02:16;3.50;;;3.20;;
11386;SDS011;5748;53.102;8.456;2022-09-09T02:04:45;3.13;;;2.93;;
11386;SDS011;5748;53.102;8.456;2022-09-09T02:07:28;2.97;;;2.70;;
11386;SDS011;5748;53.102;8.456;2022-09-09T02:10:06;2.70;;;2.50;;
11386;SDS011;5748;53.102;8.456;2022-09-09T02:12:39;2.50;;;2.30;;
11386;SDS011;5748;53.102;8.456;2022-09-09T02:15:16;2.40;;;2.20;;
11386;SDS011;5748;53.102;8.456;2022-09-09T02:17:48;2.37;;;2.20;;
11386;SDS011;5748;53.102;8.456;2022-09-09T02:20:18;2.40;;;2.20;;
11386;SDS011;5748;53.102;8.456;2022-09-09T02:22:47;2.37;;;2.17;;
11386;SDS011;5748;53.102;8.456;2022-09-09T02:25:18;2.33;;;2.13;;
11386;SDS011;5748;53.102;8.456;2022-09-09T02:27:49;2.27;;;2.10;;
11386;SDS011;5748;53.102;8.456;2022-09-09T02:30:19;2.13;;;2.00;;
11386;SDS011;5748;53.102;8.456;2022-09-09T02:32:48;2.30;;;2.10;;
11386;SDS011;5748;53.102;8.456;2022-09-09T02:35:19;2.17;;;2.00;;
11386;SDS011;5748;53.102;8.456;2022-09-09T02:37:49;1.90;;;1.80;;
11386;SDS011;5748;53.102;8.456;2022-09-09T02:40:19;2.30;;;2.10;;
11386;SDS011;5748;53.102;8.456;2022-09-09T02:43:03;2.13;;;1.93;;
11386;SDS011;5748;53.102;8.456;2022-09-09T02:45:31;1.97;;;1.80;;
11386;SDS011;5748;53.102;8.456;2022-09-09T02:48:08;2.27;;;2.07;;
11386;SDS011;5748;53.102;8.456;2022-09-09T02:50:43;2.30;;;2.10;;
11386;SDS011;5748;53.102;8.456;2022-09-09T02:53:22;2.30;;;2.10;;
11386;SDS011;5748;53.102;8.456;2022-09-09T02:56:08;2.20;;;2.00;;
11386;SDS011;5748;53.102;8.456;2022-09-09T02:58:41;2.10;;;2.00;;
11386;SDS011;5748;53.102;8.456;2022-09-09T03:01:08;2.03;;;1.93;;
11386;SDS011;5748;53.102;8.456;2022-09-09T03:06:14;1.87;;;1.77;;
11386;SDS011;5748;53.102;8.456;2022-09-09T03:08:41;2.03;;;1.93;;
11386;SDS011;5748;53.102;8.456;2022-09-09T03:11:08;2.33;;;2.13;;
11386;SDS011;5748;53.102;8.456;2022-09-09T03:13:36;1.93;;;1.83;;
11386;SDS011;5748;53.102;8.456;2022-09-09T03:16:05;2.97;;;2.07;;
11386;SDS011;5748;53.102;8.456;2022-09-09T03:18:32;2.23;;;2.03;;
11386;SDS011;5748;53.102;8.456;2022-09-09T03:20:59;2.27;;;2.07;;
11386;SDS011;5748;53.102;8.456;2022-09-09T03:23:28;2.30;;;2.10;;
11386;SDS011;5748;53.102;8.456;2022-09-09T03:25:55;1.97;;;1.87;;
11386;SDS011;5748;53.102;8.456;2022-09-09T03:28:23;2.03;;;1.93;;
11386;SDS011;5748;53.102;8.456;2022-09-09T03:30:57;1.80;;;1.70;;
11386;SDS011;5748;53.102;8.456;2022-09-09T03:33:27;2.10;;;1.90;;
11386;SDS011;5748;53.102;8.456;2022-09-09T03:35:54;2.07;;;1.87;;
11386;SDS011;5748;53.102;8.456;2022-09-09T03:38:22;2.47;;;1.80;;
11386;SDS011;5748;53.102;8.456;2022-09-09T03:40:57;2.40;;;2.20;;
11386;SDS011;5748;53.102;8.456;2022-09-09T03:43:25;1.93;;;1.83;;
11386;SDS011;5748;53.102;8.456;2022-09-09T03:45:53;2.10;;;1.90;;
11386;SDS011;5748;53.102;8.456;2022-09-09T03:48:22;2.10;;;1.90;;
11386;SDS011;5748;53.102;8.456;2022-09-09T03:50:51;2.37;;;2.00;;
11386;SDS011;5748;53.102;8.456;2022-09-09T03:53:21;1.90;;;1.80;;
11386;SDS011;5748;53.102;8.456;2022-09-09T03:55:51;2.30;;;2.10;;
11386;SDS011;5748;53.102;8.456;2022-09-09T03:58:20;2.13;;;1.93;;
11386;SDS011;5748;53.102;8.456;2022-09-09T04:00:55;1.50;;;1.40;;
11386;SDS011;5748;53.102;8.456;2022-09-09T04:03:23;2.00;;;1.83;;
11386;SDS011;5748;53.102;8.456;2022-09-09T04:05:53;2.43;;;1.90;;
11386;SDS011;5748;53.102;8.456;2022-09-09T04:08:20;2.10;;;1.70;;
11386;SDS011;5748;53.102;8.456;2022-09-09T04:10:50;5.20;;;1.70;;
11386;SDS011;5748;53.102;8.456;2022-09-09T04:13:19;1.73;;;1.63;;
11386;SDS011;5748;53.102;8.456;2022-09-09T04:15:55;2.03;;;1.77;;
11386;SDS011;5748;53.102;8.456;2022-09-09T04:18:25;2.07;;;1.80;;
11386;SDS011;5748;53.102;8.456;2022-09-09T04:20:54;1.70;;;1.60;;
11386;SDS011;5748;53.102;8.456;2022-09-09T04:23:23;1.60;;;1.50;;
11386;SDS011;5748;53.102;8.456;2022-09-09T04:28:59;1.80;;;1.70;;
11386;SDS011;5748;53.102;8.456;2022-09-09T04:31:26;2.00;;;1.77;;
11386;SDS011;5748;53.102;8.456;2022-09-09T04:34:00;1.63;;;1.53;;
11386;SDS011;5748;53.102;8.456;2022-09-09T04:36:32;1.53;;;1.43;;
11386;SDS011;5748;53.102;8.456;2022-09-09T04:39:00;2.00;;;1.80;;
11386;SDS011;5748;53.102;8.456;2022-09-09T04:41:33;1.50;;;1.40;;
11386;SDS011;5748;53.102;8.456;2022-09-09T04:44:15;1.57;;;1.47;;
11386;SDS011;5748;53.102;8.456;2022-09-09T04:46:42;1.70;;;1.60;;
11386;SDS011;5748;53.102;8.456;2022-09-09T04:49:11;2.07;;;1.60;;
11386;SDS011;5748;53.102;8.456;2022-09-09T04:51:39;1.60;;;1.50;;
11386;SDS011;5748;53.102;8.456;2022-09-09T04:54:06;1.80;;;1.63;;
11386;SDS011;5748;53.102;8.456;2022-09-09T04:56:34;1.87;;;1.77;;
11386;SDS011;5748;53.102;8.456;2022-09-09T04:59:01;1.70;;;1.60;;
11386;SDS011;5748;53.102;8.456;2022-09-09T05:01:29;3.63;;;1.70;;
11386;SDS011;5748;53.102;8.456;2022-09-09T05:03:57;1.60;;;1.50;;
11386;SDS011;5748;53.102;8.456;2022-09-09T05:06:24;1.60;;;1.50;;
11386;SDS011;5748;53.102;8.456;2022-09-09T05:08:53;1.80;;;1.70;;
11386;SDS011;5748;53.102;8.456;2022-09-09T05:11:20;1.97;;;1.87;;
11386;SDS011;5748;53.102;8.456;2022-09-09T05:13:50;1.70;;;1.60;;
11386;SDS011;5748;53.102;8.456;2022-09-09T05:16:19;1.80;;;1.70;;
11386;SDS011;5748;53.102;8.456;2022-09-09T05:18:49;1.60;;;1.50;;
11386;SDS011;5748;53.102;8.456;2022-09-09T05:21:17;1.70;;;1.60;;
11386;SDS011;5748;53.102;8.456;2022-09-09T05:23:46;1.50;;;1.40;;
11386;SDS011;5748;53.102;8.456;2022-09-09T05:26:15;1.80;;;1.70;;
11386;SDS011;5748;53.102;8.456;2022-09-09T05:28:45;2.80;;;1.60;;
11386;SDS011;5748;53.102;8.456;2022-09-09T05:31:13;1.83;;;1.70;;
11386;SDS011;5748;53.102;8.456;2022-09-09T05:33:45;1.60;;;1.50;;
11386;SDS011;5748;53.102;8.456;2022-09-09T05:36:15;1.83;;;1.73;;
11386;SDS011;5748;53.102;8.456;2022-09-09T05:38:44;2.10;;;1.90;;
11386;SDS011;5748;53.102;8.456;2022-09-09T05:41:11;1.60;;;1.50;;
11386;SDS011;5748;53.102;8.456;2022-09-09T05:43:42;1.60;;;1.50;;
11386;SDS011;5748;53.102;8.456;2022-09-09T05:46:11;1.80;;;1.70;;
11386;SDS011;5748;53.102;8.456;2022-09-09T05:48:40;1.77;;;1.67;;
11386;SDS011;5748;53.102;8.456;2022-09-09T05:51:10;2.10;;;1.43;;
11386;SDS011;5748;53.102;8.456;2022-09-09T05:53:41;1.60;;;1.50;;
11386;SDS011;5748;53.102;8.456;2022-09-09T05:56:09;1.67;;;1.57;;
11386;SDS011;5748;53.102;8.456;2022-09-09T05:58:39;1.60;;;1.33;;
11386;SDS011;5748;53.102;8.456;2022-09-09T06:01:09;1.90;;;1.70;;
11386;SDS011;5748;53.102;8.456;2022-09-09T06:03:39;1.60;;;1.50;;
11386;SDS011;5748;53.102;8.456;2022-09-09T06:06:08;1.70;;;1.60;;
11386;SDS011;5748;53.102;8.456;2022-09-09T06:08:38;2.00;;;1.80;;
11386;SDS011;5748;53.102;8.456;2022-09-09T06:11:10;1.67;;;1.57;;
11386;SDS011;5748;53.102;8.456;2022-09-09T06:13:43;1.67;;;1.57;;
11386;SDS011;5748;53.102;8.456;2022-09-09T06:16:11;2.27;;;1.77;;
11386;SDS011;5748;53.102;8.456;2022-09-09T06:18:43;1.60;;;1.50;;
11386;SDS011;5748;53.102;8.456;2022-09-09T06:21:14;1.63;;;1.53;;
11386;SDS011;5748;53.102;8.456;2022-09-09T06:23:43;1.80;;;1.70;;
11386;SDS011;5748;53.102;8.456;2022-09-09T06:26:12;2.00;;;1.80;;
11386;SDS011;5748;53.102;8.456;2022-09-09T06:28:43;1.73;;;1.60;;
11386;SDS011;5748;53.102;8.456;2022-09-09T06:31:13;1.80;;;1.70;;
11386;SDS011;5748;53.102;8.456;2022-09-09T06:33:42;2.10;;;1.83;;
11386;SDS011;5748;53.102;8.456;2022-09-09T06:36:10;1.70;;;1.60;;
11386;SDS011;5748;53.102;8.456;2022-09-09T06:38:39;1.70;;;1.60;;
11386;SDS011;5748;53.102;8.456;2022-09-09T06:41:07;1.60;;;1.50;;
11386;SDS011;5748;53.102;8.456;2022-09-09T06:43:35;1.83;;;1.70;;
11386;SDS011;5748;53.102;8.456;2022-09-09T06:46:04;1.70;;;1.60;;
11386;SDS011;5748;53.102;8.456;2022-09-09T06:48:34;1.77;;;1.67;;
11386;SDS011;5748;53.102;8.456;2022-09-09T06:51:02;1.80;;;1.70;;
11386;SDS011;5748;53.102;8.456;2022-09-09T06:53:32;1.70;;;1.50;;
11386;SDS011;5748;53.102;8.456;2022-09-09T06:56:00;1.83;;;1.43;;
11386;SDS011;5748;53.102;8.456;2022-09-09T06:58:29;1.87;;;1.77;;
11386;SDS011;5748;53.102;8.456;2022-09-09T07:01:10;1.60;;;1.50;;
11386;SDS011;5748;53.102;8.456;2022-09-09T07:03:39;1.60;;;1.50;;
11386;SDS011;5748;53.102;8.456;2022-09-09T07:06:37;2.23;;;1.60;;
11386;SDS011;5748;53.102;8.456;2022-09-09T07:09:08;1.60;;;1.50;;
11386;SDS011;5748;53.102;8.456;2022-09-09T07:11:38;1.90;;;1.60;;
11386;SDS011;5748;53.102;8.456;2022-09-09T07:14:06;1.43;;;1.33;;
11386;SDS011;5748;53.102;8.456;2022-09-09T07:16:35;1.80;;;1.70;;
11386;SDS011;5748;53.102;8.456;2022-09-09T07:19:03;1.50;;;1.40;;
11386;SDS011;5748;53.102;8.456;2022-09-09T07:21:31;1.77;;;1.37;;
11386;SDS011;5748;53.102;8.456;2022-09-09T07:23:59;2.03;;;1.30;;
11386;SDS011;5748;53.102;8.456;2022-09-09T07:26:27;1.63;;;1.50;;
11386;SDS011;5748;53.102;8.456;2022-09-09T07:28:56;1.60;;;1.50;;
11386;SDS011;5748;53.102;8.456;2022-09-09T07:31:37;1.93;;;1.80;;
11386;SDS011;5748;53.102;8.456;2022-09-09T07:34:11;1.90;;;1.50;;
11386;SDS011;5748;53.102;8.456;2022-09-09T07:36:38;1.47;;;1.37;;
11386;SDS011;5748;53.102;8.456;2022-09-09T07:39:09;1.40;;;1.30;;
11386;SDS011;5748;53.102;8.456;2022-09-09T07:41:40;1.93;;;1.70;;
11386;SDS011;5748;53.102;8.456;2022-09-09T07:44:09;1.80;;;1.70;;
11386;SDS011;5748;53.102;8.456;2022-09-09T07:46:40;1.60;;;1.50;;
11386;SDS011;5748;53.102;8.456;2022-09-09T07:49:08;1.60;;;1.50;;
11386;SDS011;5748;53.102;8.456;2022-09-09T07:51:36;2.10;;;1.67;;
11386;SDS011;5748;53.102;8.456;2022-09-09T07:54:06;1.40;;;1.30;;
11386;SDS011;5748;53.102;8.456;2022-09-09T07:56:41;1.53;;;1.40;;
11386;SDS011;5748;53.102;8.456;2022-09-09T07:59:22;1.50;;;1.40;;
11386;SDS011;5748;53.102;8.456;2022-09-09T08:02:03;1.73;;;1.50;;
11386;SDS011;5748;53.102;8.456;2022-09-09T08:04:34;1.40;;;1.30;;
11386;SDS011;5748;53.102;8.456;2022-09-09T08:07:01;1.70;;;1.40;;
11386;SDS011;5748;53.102;8.456;2022-09-09T08:09:29;1.40;;;1.30;;
11386;SDS011;5748;53.102;8.456;2022-09-09T08:12:01;1.80;;;1.40;;
11386;SDS011;5748;53.102;8.456;2022-09-09T08:17:26;1.40;;;1.20;;
11386;SDS011;5748;53.102;8.456;2022-09-09T08:19:53;1.27;;;1.17;;
11386;SDS011;5748;53.102;8.456;2022-09-09T08:22:32;1.47;;;1.37;;
11386;SDS011;5748;53.102;8.456;2022-09-09T08:25:00;1.57;;;1.20;;
11386;SDS011;5748;53.102;8.456;2022-09-09T08:27:31;2.33;;;1.40;;
11386;SDS011;5748;53.102;8.456;2022-09-09T08:29:58;1.73;;;1.27;;
11386;SDS011;5748;53.102;8.456;2022-09-09T08:32:26;1.30;;;1.20;;
11386;SDS011;5748;53.102;8.456;2022-09-09T08:34:54;1.02;;;1.00;;
11386;SDS011;5748;53.102;8.456;2022-09-09T08:37:21;1.77;;;1.40;;
11386;SDS011;5748;53.102;8.456;2022-09-09T08:42:28;1.30;;;1.20;;
11386;SDS011;5748;53.102;8.456;2022-09-09T08:48:05;1.60;;;1.50;;
11386;SDS011;5748;53.102;8.456;2022-09-09T08:50:58;1.60;;;1.50;;
11386;SDS011;5748;53.102;8.456;2022-09-09T08:53:27;1.63;;;1.52;;
11386;SDS011;5748;53.102;8.456;2022-09-09T08:55:57;1.73;;;1.63;;
11386;SDS011;5748;53.102;8.456;2022-09-09T08:58:27;1.70;;;1.60;;
11386;SDS011;5748;53.102;8.456;2022-09-09T09:01:05;1.65;;;1.55;;
11386;SDS011;5748;53.102;8.456;2022-09-09T09:03:59;1.40;;;1.30;;
11386;SDS011;5748;53.102;8.456;2022-09-09T09:06:35;1.73;;;1.52;;
11386;SDS011;5748;53.102;8.456;2022-09-09T09:09:16;1.50;;;1.40;;
11386;SDS011;5748;53.102;8.456;2022-09-09T09:11:53;1.30;;;1.20;;
11386;SDS011;5748;53.102;8.456;2022-09-09T09:14:26;1.40;;;1.30;;
11386;SDS011;5748;53.102;8.456;2022-09-09T09:16:59;1.33;;;1.23;;
11386;SDS011;5748;53.102;8.456;2022-09-09T09:19:33;1.40;;;1.30;;
11386;SDS011;5748;53.102;8.456;2022-09-09T09:22:04;1.00;;;1.00;;
11386;SDS011;5748;53.102;8.456;2022-09-09T09:24:41;1.50;;;1.40;;
11386;SDS011;5748;53.102;8.456;2022-09-09T09:27:18;1.02;;;1.02;;
11386;SDS011;5748;53.102;8.456;2022-09-09T09:29:57;2.05;;;1.33;;
11386;SDS011;5748;53.102;8.456;2022-09-09T09:32:30;2.03;;;1.27;;
11386;SDS011;5748;53.102;8.456;2022-09-09T09:35:02;1.25;;;1.15;;
11386;SDS011;5748;53.102;8.456;2022-09-09T09:37:37;1.40;;;1.30;;
11386;SDS011;5748;53.102;8.456;2022-09-09T09:40:10;1.10;;;1.10;;
11386;SDS011;5748;53.102;8.456;2022-09-09T09:42:47;1.20;;;1.10;;
11386;SDS011;5748;53.102;8.456;2022-09-09T09:45:26;0.90;;;0.90;;
11386;SDS011;5748;53.102;8.456;2022-09-09T09:48:02;1.00;;;0.90;;
11386;SDS011;5748;53.102;8.456;2022-09-09T09:50:33;1.20;;;1.10;;
11386;SDS011;5748;53.102;8.456;2022-09-09T09:53:02;1.30;;;1.20;;
11386;SDS011;5748;53.102;8.456;2022-09-09T09:55:31;1.20;;;1.10;;
11386;SDS011;5748;53.102;8.456;2022-09-09T09:58:02;1.02;;;1.00;;
11386;SDS011;5748;53.102;8.456;2022-09-09T10:00:31;2.22;;;1.15;;
11386;SDS011;5748;53.102;8.456;2022-09-09T10:03:01;1.05;;;1.00;;
11386;SDS011;5748;53.102;8.456;2022-09-09T10:05:46;1.15;;;1.13;;
11386;SDS011;5748;53.102;8.456;2022-09-09T10:08:14;1.02;;;1.02;;
11386;SDS011;5748;53.102;8.456;2022-09-09T10:10:59;1.77;;;1.30;;
11386;SDS011;5748;53.102;8.456;2022-09-09T10:13:39;1.08;;;1.02;;
11386;SDS011;5748;53.102;8.456;2022-09-09T10:16:26;1.35;;;1.25;;
11386;SDS011;5748;53.102;8.456;2022-09-09T10:19:05;1.30;;;1.20;;
11386;SDS011;5748;53.102;8.456;2022-09-09T10:24:59;1.50;;;1.40;;
11386;SDS011;5748;53.102;8.456;2022-09-09T10:27:55;1.50;;;1.40;;
11386;SDS011;5748;53.102;8.456;2022-09-09T10:30:58;1.50;;;1.40;;
11386;SDS011;5748;53.102;8.456;2022-09-09T10:33:44;1.65;;;1.55;;
11386;SDS011;5748;53.102;8.456;2022-09-09T10:36:18;1.88;;;1.45;;
11386;SDS011;5748;53.102;8.456;2022-09-09T10:38:50;1.75;;;1.23;;
11386;SDS011;5748;53.102;8.456;2022-09-09T10:41:29;1.40;;;1.30;;
11386;SDS011;5748;53.102;8.456;2022-09-09T10:44:17;1.30;;;1.20;;
11386;SDS011;5748;53.102;8.456;2022-09-09T10:47:10;1.25;;;1.15;;
11386;SDS011;5748;53.102;8.456;2022-09-09T10:50:03;1.30;;;1.20;;
11386;SDS011;5748;53.102;8.456;2022-09-09T10:53:08;1.30;;;1.15;;
11386;SDS011;5748;53.102;8.456;2022-09-09T10:55:48;1.27;;;1.20;;
11386;SDS011;5748;53.102;8.456;2022-09-09T10:58:20;1.10;;;1.00;;
11386;SDS011;5748;53.102;8.456;2022-09-09T11:00:56;1.10;;;1.10;;
11386;SDS011;5748;53.102;8.456;2022-09-09T11:03:28;1.17;;;1.17;;
11386;SDS011;5748;53.102;8.456;2022-09-09T11:05:57;1.15;;;1.10;;
11386;SDS011;5748;53.102;8.456;2022-09-09T11:08:37;1.35;;;1.30;;
11386;SDS011;5748;53.102;8.456;2022-09-09T11:11:08;1.25;;;1.15;;
11386;SDS011;5748;53.102;8.456;2022-09-09T11:13:44;1.20;;;1.10;;
11386;SDS011;5748;53.102;8.456;2022-09-09T11:16:19;1.15;;;0.90;;
11386;SDS011;5748;53.102;8.456;2022-09-09T11:18:55;1.70;;;1.10;;
11386;SDS011;5748;53.102;8.456;2022-09-09T11:21:27;1.10;;;1.00;;
11386;SDS011;5748;53.102;8.456;2022-09-09T11:23:59;1.10;;;1.00;;
11386;SDS011;5748;53.102;8.456;2022-09-09T11:26:33;0.80;;;0.80;;
11386;SDS011;5748;53.102;8.456;2022-09-09T11:29:16;0.90;;;0.90;;
11386;SDS011;5748;53.102;8.456;2022-09-09T11:32:17;1.35;;;1.00;;
11386;SDS011;5748;53.102;8.456;2022-09-09T11:35:07;1.58;;;1.20;;
11386;SDS011;5748;53.102;8.456;2022-09-09T11:37:57;1.80;;;1.08;;
11386;SDS011;5748;53.102;8.456;2022-09-09T11:40:44;0.90;;;0.90;;
11386;SDS011;5748;53.102;8.456;2022-09-09T11:43:15;1.10;;;0.90;;
11386;SDS011;5748;53.102;8.456;2022-09-09T11:45:50;1.23;;;1.10;;
11386;SDS011;5748;53.102;8.456;2022-09-09T11:48:23;1.00;;;0.93;;
11386;SDS011;5748;53.102;8.456;2022-09-09T11:50:59;1.38;;;1.00;;
11386;SDS011;5748;53.102;8.456;2022-09-09T11:53:30;1.27;;;1.15;;
11386;SDS011;5748;53.102;8.456;2022-09-09T11:56:10;0.90;;;0.90;;
11386;SDS011;5748;53.102;8.456;2022-09-09T11:58:42;1.10;;;1.00;;
11386;SDS011;5748;53.102;8.456;2022-09-09T12:01:30;1.08;;;1.02;;
11386;SDS011;5748;53.102;8.456;2022-09-09T12:07:05;1.80;;;1.27;;
11386;SDS011;5748;53.102;8.456;2022-09-09T12:09:57;1.20;;;1.10;;
11386;SDS011;5748;53.102;8.456;2022-09-09T12:12:29;1.40;;;1.27;;
11386;SDS011;5748;53.102;8.456;2022-09-09T12:17:53;1.00;;;1.00;;
11386;SDS011;5748;53.102;8.456;2022-09-09T12:20:23;1.50;;;1.30;;
11386;SDS011;5748;53.102;8.456;2022-09-09T12:26:00;1.25;;;1.15;;
11386;SDS011;5748;53.102;8.456;2022-09-09T12:28:52;1.10;;;1.00;;
11386;SDS011;5748;53.102;8.456;2022-09-09T12:31:31;1.45;;;1.10;;
11386;SDS011;5748;53.102;8.456;2022-09-09T12:34:10;1.10;;;1.00;;
11386;SDS011;5748;53.102;8.456;2022-09-09T12:36:40;1.98;;;1.23;;
11386;SDS011;5748;53.102;8.456;2022-09-09T12:42:00;1.65;;;1.00;;
11386;SDS011;5748;53.102;8.456;2022-09-09T12:44:29;1.55;;;1.20;;
11386;SDS011;5748;53.102;8.456;2022-09-09T12:46:59;1.92;;;1.10;;
11386;SDS011;5748;53.102;8.456;2022-09-09T12:49:30;1.10;;;1.00;;
11386;SDS011;5748;53.102;8.456;2022-09-09T12:52:02;1.20;;;1.08;;
11386;SDS011;5748;53.102;8.456;2022-09-09T12:54:33;1.30;;;1.20;;
11386;SDS011;5748;53.102;8.456;2022-09-09T12:57:02;1.30;;;1.20;;
11386;SDS011;5748;53.102;8.456;2022-09-09T12:59:34;1.20;;;1.10;;
11386;SDS011;5748;53.102;8.456;2022-09-09T13:02:11;1.70;;;1.40;;
11386;SDS011;5748;53.102;8.456;2022-09-09T13:04:46;1.20;;;1.10;;
11386;SDS011;5748;53.102;8.456;2022-09-09T13:07:15;1.10;;;1.00;;
11386;SDS011;5748;53.102;8.456;2022-09-09T13:09:43;1.90;;;1.20;;
11386;SDS011;5748;53.102;8.456;2022-09-09T13:12:13;1.83;;;1.23;;
11386;SDS011;5748;53.102;8.456;2022-09-09T13:14:43;1.27;;;1.15;;
11386;SDS011;5748;53.102;8.456;2022-09-09T13:17:19;1.30;;;1.02;;
11386;SDS011;5748;53.102;8.456;2022-09-09T13:19:49;2.17;;;1.30;;
11386;SDS011;5748;53.102;8.456;2022-09-09T13:22:20;1.08;;;1.05;;
11386;SDS011;5748;53.102;8.456;2022-09-09T13:25:00;1.00;;;0.90;;
11386;SDS011;5748;53.102;8.456;2022-09-09T13:27:31;1.00;;;0.90;;
11386;SDS011;5748;53.102;8.456;2022-09-09T13:33:00;1.10;;;0.70;;
11386;SDS011;5748;53.102;8.456;2022-09-09T13:38:32;0.70;;;0.70;;
11386;SDS011;5748;53.102;8.456;2022-09-09T13:41:03;0.80;;;0.80;;
11386;SDS011;5748;53.102;8.456;2022-09-09T13:43:34;0.63;;;0.63;;
11386;SDS011;5748;53.102;8.456;2022-09-09T13:46:03;0.77;;;0.60;;
11386;SDS011;5748;53.102;8.456;2022-09-09T13:48:56;1.07;;;0.60;;
11386;SDS011;5748;53.102;8.456;2022-09-09T13:51:29;0.80;;;0.80;;
11386;SDS011;5748;53.102;8.456;2022-09-09T13:54:03;1.10;;;0.70;;
11386;SDS011;5748;53.102;8.456;2022-09-09T13:56:32;0.80;;;0.80;;
11386;SDS011;5748;53.102;8.456;2022-09-09T13:59:00;0.90;;;0.90;;
11386;SDS011;5748;53.102;8.456;2022-09-09T14:01:27;0.77;;;0.77;;
11386;SDS011;5748;53.102;8.456;2022-09-09T14:03:55;0.70;;;0.70;;
11386;SDS011;5748;53.102;8.456;2022-09-09T14:06:23;0.70;;;0.70;;
11386;SDS011;5748;53.102;8.456;2022-09-09T14:08:51;0.70;;;0.70;;
11386;SDS011;5748;53.102;8.456;2022-09-09T14:11:19;0.80;;;0.80;;
11386;SDS011;5748;53.102;8.456;2022-09-09T14:13:47;1.00;;;0.90;;
11386;SDS011;5748;53.102;8.456;2022-09-09T14:16:17;0.87;;;0.80;;
11386;SDS011;5748;53.102;8.456;2022-09-09T14:18:45;0.90;;;0.90;;
11386;SDS011;5748;53.102;8.456;2022-09-09T14:21:20;0.80;;;0.80;;
11386;SDS011;5748;53.102;8.456;2022-09-09T14:23:48;1.10;;;0.80;;
11386;SDS011;5748;53.102;8.456;2022-09-09T14:26:15;1.17;;;0.80;;
11386;SDS011;5748;53.102;8.456;2022-09-09T14:28:51;0.87;;;0.87;;
11386;SDS011;5748;53.102;8.456;2022-09-09T14:31:18;0.77;;;0.77;;
11386;SDS011;5748;53.102;8.456;2022-09-09T14:33:47;1.23;;;0.93;;
11386;SDS011;5748;53.102;8.456;2022-09-09T14:39:07;0.90;;;0.90;;
11386;SDS011;5748;53.102;8.456;2022-09-09T14:41:34;1.20;;;1.10;;
11386;SDS011;5748;53.102;8.456;2022-09-09T14:46:43;1.00;;;1.00;;
11386;SDS011;5748;53.102;8.456;2022-09-09T14:49:11;1.10;;;1.00;;
11386;SDS011;5748;53.102;8.456;2022-09-09T14:51:40;0.90;;;0.90;;
11386;SDS011;5748;53.102;8.456;2022-09-09T14:54:08;1.20;;;1.10;;
11386;SDS011;5748;53.102;8.456;2022-09-09T14:56:38;1.60;;;1.07;;
11386;SDS011;5748;53.102;8.456;2022-09-09T15:01:35;0.90;;;0.90;;
11386;SDS011;5748;53.102;8.456;2022-09-09T15:06:46;1.63;;;1.03;;
11386;SDS011;5748;53.102;8.456;2022-09-09T15:09:14;1.33;;;0.97;;
11386;SDS011;5748;53.102;8.456;2022-09-09T15:11:42;2.87;;;1.00;;
11386;SDS011;5748;53.102;8.456;2022-09-09T15:14:09;1.27;;;1.17;;
11386;SDS011;5748;53.102;8.456;2022-09-09T15:16:37;1.10;;;1.03;;
11386;SDS011;5748;53.102;8.456;2022-09-09T15:19:05;1.27;;;1.17;;
11386;SDS011;5748;53.102;8.456;2022-09-09T15:21:34;1.10;;;1.00;;
11386;SDS011;5748;53.102;8.456;2022-09-09T15:24:04;1.37;;;1.20;;
11386;SDS011;5748;53.102;8.456;2022-09-09T15:26:33;0.97;;;0.97;;
11386;SDS011;5748;53.102;8.456;2022-09-09T15:29:01;1.30;;;1.20;;
11386;SDS011;5748;53.102;8.456;2022-09-09T15:31:31;1.27;;;1.20;;
11386;SDS011;5748;53.102;8.456;2022-09-09T15:33:59;1.33;;;1.23;;
11386;SDS011;5748;53.102;8.456;2022-09-09T15:36:35;1.30;;;1.20;;
11386;SDS011;5748;53.102;8.456;2022-09-09T15:39:05;1.30;;;1.20;;
11386;SDS011;5748;53.102;8.456;2022-09-09T15:41:34;1.27;;;1.17;;
11386;SDS011;5748;53.102;8.456;2022-09-09T15:44:02;1.33;;;1.10;;
11386;SDS011;5748;53.102;8.456;2022-09-09T15:46:30;1.73;;;1.17;;
11386;SDS011;5748;53.102;8.456;2022-09-09T15:49:03;1.10;;;1.00;;
11386;SDS011;5748;53.102;8.456;2022-09-09T15:51:34;1.20;;;1.10;;
11386;SDS011;5748;53.102;8.456;2022-09-09T15:54:02;1.03;;;1.00;;
11386;SDS011;5748;53.102;8.456;2022-09-09T15:56:32;1.10;;;1.00;;
11386;SDS011;5748;53.102;8.456;2022-09-09T15:59:00;1.20;;;1.10;;
11386;SDS011;5748;53.102;8.456;2022-09-09T16:01:28;1.40;;;1.20;;
11386;SDS011;5748;53.102;8.456;2022-09-09T16:04:00;1.13;;;1.10;;
11386;SDS011;5748;53.102;8.456;2022-09-09T16:06:29;1.30;;;1.20;;
11386;SDS011;5748;53.102;8.456;2022-09-09T16:08:58;1.17;;;1.07;;
11386;SDS011;5748;53.102;8.456;2022-09-09T16:11:28;1.30;;;1.20;;
11386;SDS011;5748;53.102;8.456;2022-09-09T16:13:58;1.20;;;1.10;;
11386;SDS011;5748;53.102;8.456;2022-09-09T16:16:26;1.20;;;1.10;;
11386;SDS011;5748;53.102;8.456;2022-09-09T16:18:56;1.30;;;1.20;;
11386;SDS011;5748;53.102;8.456;2022-09-09T16:21:31;1.10;;;1.00;;
11386;SDS011;5748;53.102;8.456;2022-09-09T16:24:01;1.33;;;1.00;;
11386;SDS011;5748;53.102;8.456;2022-09-09T16:26:32;1.83;;;0.90;;
11386;SDS011;5748;53.102;8.456;2022-09-09T16:29:01;1.13;;;1.00;;
11386;SDS011;5748;53.102;8.456;2022-09-09T16:31:29;1.27;;;0.83;;